sensor_id;sensor_type;location;lat;lon;timestamp;temperature;humidity
30379;DHT22;17168;49.164;9.060;2023-12-20T00:04:43;11.50;80.70
30379;DHT22;17168;49.164;9.060;2023-12-20T00:06:36;11.30;80.10
30379;DHT22;17168;49.164;9.060;2023-12-20T00:09:11;10.90;80.40
30379;DHT22;17168;49.164;9.060;2023-12-20T00:11:44;10.50;80.90
30379;DHT22;17168;49.164;9.060;2023-12-20T00:14:16;10.20;81.60
30379;DHT22;17168;49.164;9.060;2023-12-20T00:17:06;9.90;82.60
30379;DHT22;17168;49.164;9.060;2023-12-20T00:19:42;9.50;83.70
30379;DHT22;17168;49.164;9.060;2023-12-20T00:22:29;9.30;84.50
30379;DHT22;17168;49.164;9.060;2023-12-20T00:25:04;9.10;85.40
30379;DHT22;17168;49.164;9.060;2023-12-20T00:27:37;8.90;86.30
30379;DHT22;17168;49.164;9.060;2023-12-20T00:30:11;8.70;87.10
30379;DHT22;17168;49.164;9.060;2023-12-20T00:32:43;8.60;88.30
30379;DHT22;17168;49.164;9.060;2023-12-20T00:35:24;8.40;89.50
30379;DHT22;17168;49.164;9.060;2023-12-20T00:37:59;8.30;90.40
30379;DHT22;17168;49.164;9.060;2023-12-20T00:40:31;8.20;91.10
30379;DHT22;17168;49.164;9.060;2023-12-20T00:43:06;8.00;92.20
30379;DHT22;17168;49.164;9.060;2023-12-20T01:08:19;7.20;99.90
30379;DHT22;17168;49.164;9.060;2023-12-20T01:11:05;7.10;99.90
30379;DHT22;17168;49.164;9.060;2023-12-20T01:13:38;7.00;99.90
30379;DHT22;17168;49.164;9.060;2023-12-20T01:16:12;7.00;99.90
30379;DHT22;17168;49.164;9.060;2023-12-20T01:18:48;7.00;99.90
30379;DHT22;17168;49.164;9.060;2023-12-20T01:21:38;6.90;99.90
30379;DHT22;17168;49.164;9.060;2023-12-20T01:24:14;6.90;99.90
30379;DHT22;17168;49.164;9.060;2023-12-20T01:26:49;6.90;99.90
30379;DHT22;17168;49.164;9.060;2023-12-20T01:29:34;6.90;99.90
30379;DHT22;17168;49.164;9.060;2023-12-20T01:32:34;6.80;99.90
30379;DHT22;17168;49.164;9.060;2023-12-20T01:35:07;6.90;99.90
30379;DHT22;17168;49.164;9.060;2023-12-20T01:58:34;6.70;99.90
30379;DHT22;17168;49.164;9.060;2023-12-20T02:01:43;6.70;99.90
30379;DHT22;17168;49.164;9.060;2023-12-20T02:07:14;6.70;99.90
30379;DHT22;17168;49.164;9.060;2023-12-20T02:09:47;6.70;99.90
30379;DHT22;17168;49.164;9.060;2023-12-20T02:12:40;6.70;99.90
30379;DHT22;17168;49.164;9.060;2023-12-20T02:18:36;6.70;99.90
30379;DHT22;17168;49.164;9.060;2023-12-20T03:08:25;6.60;99.90
30379;DHT22;17168;49.164;9.060;2023-12-20T03:11:32;6.60;99.90
30379;DHT22;17168;49.164;9.060;2023-12-20T03:14:04;6.60;99.90
30379;DHT22;17168;49.164;9.060;2023-12-20T03:16:39;6.60;99.90
30379;DHT22;17168;49.164;9.060;2023-12-20T03:22:59;6.60;99.90
30379;DHT22;17168;49.164;9.060;2023-12-20T03:25:34;6.60;99.90
30379;DHT22;17168;49.164;9.060;2023-12-20T03:28:17;6.60;99.90
30379;DHT22;17168;49.164;9.060;2023-12-20T03:34:40;6.60;99.90
30379;DHT22;17168;49.164;9.060;2023-12-20T03:37:13;6.60;99.90
30379;DHT22;17168;49.164;9.060;2023-12-20T03:39:45;6.60;99.90
30379;DHT22;17168;49.164;9.060;2023-12-20T03:42:20;6.60;99.90
30379;DHT22;17168;49.164;9.060;2023-12-20T03:44:54;6.60;99.90
30379;DHT22;17168;49.164;9.060;2023-12-20T03:47:26;6.60;99.90
30379;DHT22;17168;49.164;9.060;2023-12-20T03:50:14;6.60;99.90
30379;DHT22;17168;49.164;9.060;2023-12-20T03:56:07;6.60;99.90
30379;DHT22;17168;49.164;9.060;2023-12-20T03:58:45;6.60;99.90
30379;DHT22;17168;49.164;9.060;2023-12-20T04:01:17;6.60;99.90
30379;DHT22;17168;49.164;9.060;2023-12-20T04:03:52;6.60;99.90
30379;DHT22;17168;49.164;9.060;2023-12-20T04:06:27;6.60;99.90
30379;DHT22;17168;49.164;9.060;2023-12-20T04:09:00;6.60;99.90
30379;DHT22;17168;49.164;9.060;2023-12-20T04:11:32;6.60;99.90
30379;DHT22;17168;49.164;9.060;2023-12-20T04:14:07;6.60;99.90
30379;DHT22;17168;49.164;9.060;2023-12-20T04:16:41;6.60;99.90
30379;DHT22;17168;49.164;9.060;2023-12-20T04:19:18;6.60;99.90
30379;DHT22;17168;49.164;9.060;2023-12-20T04:21:55;6.60;99.90
30379;DHT22;17168;49.164;9.060;2023-12-20T04:24:33;6.50;99.90
30379;DHT22;17168;49.164;9.060;2023-12-20T04:27:06;6.60;99.90
30379;DHT22;17168;49.164;9.060;2023-12-20T04:29:41;6.60;99.90
30379;DHT22;17168;49.164;9.060;2023-12-20T04:32:15;6.60;99.90
30379;DHT22;17168;49.164;9.060;2023-12-20T04:34:47;6.60;99.90
30379;DHT22;17168;49.164;9.060;2023-12-20T04:37:22;6.60;99.90
30379;DHT22;17168;49.164;9.060;2023-12-20T04:40:04;6.60;99.90
30379;DHT22;17168;49.164;9.060;2023-12-20T04:42:38;6.60;99.90
30379;DHT22;17168;49.164;9.060;2023-12-20T04:45:13;6.60;99.90
30379;DHT22;17168;49.164;9.060;2023-12-20T04:47:47;6.60;99.90
30379;DHT22;17168;49.164;9.060;2023-12-20T04:53:42;6.60;99.90
30379;DHT22;17168;49.164;9.060;2023-12-20T04:56:35;6.60;99.90
30379;DHT22;17168;49.164;9.060;2023-12-20T04:59:10;6.70;99.90
30379;DHT22;17168;49.164;9.060;2023-12-20T05:01:48;6.70;99.90
30379;DHT22;17168;49.164;9.060;2023-12-20T05:04:34;6.60;99.90
30379;DHT22;17168;49.164;9.060;2023-12-20T05:07:09;6.70;99.90
30379;DHT22;17168;49.164;9.060;2023-12-20T05:09:46;6.70;99.90
30379;DHT22;17168;49.164;9.060;2023-12-20T05:12:18;6.70;99.90
30379;DHT22;17168;49.164;9.060;2023-12-20T05:14:52;6.70;99.90
30379;DHT22;17168;49.164;9.060;2023-12-20T05:17:41;6.70;99.90
30379;DHT22;17168;49.164;9.060;2023-12-20T05:20:14;6.70;99.90
30379;DHT22;17168;49.164;9.060;2023-12-20T05:23:07;6.70;99.90
30379;DHT22;17168;49.164;9.060;2023-12-20T05:25:45;6.70;99.90
30379;DHT22;17168;49.164;9.060;2023-12-20T05:28:17;6.70;99.90
30379;DHT22;17168;49.164;9.060;2023-12-20T05:31:16;6.70;99.90
30379;DHT22;17168;49.164;9.060;2023-12-20T05:58:24;6.80;99.90
30379;DHT22;17168;49.164;9.060;2023-12-20T06:00:57;6.80;99.90
30379;DHT22;17168;49.164;9.060;2023-12-20T06:03:29;6.70;99.90
30379;DHT22;17168;49.164;9.060;2023-12-20T06:06:11;6.80;99.90
30379;DHT22;17168;49.164;9.060;2023-12-20T06:12:39;6.80;99.90
30379;DHT22;17168;49.164;9.060;2023-12-20T06:15:30;6.80;99.90
30379;DHT22;17168;49.164;9.060;2023-12-20T06:18:15;6.80;99.90
30379;DHT22;17168;49.164;9.060;2023-12-20T06:21:25;6.80;99.90
30379;DHT22;17168;49.164;9.060;2023-12-20T06:30:48;6.80;99.90
30379;DHT22;17168;49.164;9.060;2023-12-20T06:36:23;6.90;99.90
30379;DHT22;17168;49.164;9.060;2023-12-20T06:38:59;6.90;99.90
30379;DHT22;17168;49.164;9.060;2023-12-20T06:41:31;6.90;99.90
30379;DHT22;17168;49.164;9.060;2023-12-20T06:44:04;6.80;99.90
30379;DHT22;17168;49.164;9.060;2023-12-20T06:46:50;6.80;99.90
30379;DHT22;17168;49.164;9.060;2023-12-20T06:49:35;7.00;99.90
30379;DHT22;17168;49.164;9.060;2023-12-20T06:52:16;7.40;99.90
30379;DHT22;17168;49.164;9.060;2023-12-20T06:54:48;7.90;99.90
30379;DHT22;17168;49.164;9.060;2023-12-20T06:57:27;8.30;99.90
30379;DHT22;17168;49.164;9.060;2023-12-20T06:59:59;8.60;99.90
30379;DHT22;17168;49.164;9.060;2023-12-20T07:02:34;9.00;99.90
30379;DHT22;17168;49.164;9.060;2023-12-20T08:17:46;7.00;99.90
30379;DHT22;17168;49.164;9.060;2023-12-20T12:59:56;8.40;98.50
30379;DHT22;17168;49.164;9.060;2023-12-20T13:13:05;7.80;99.90
30379;DHT22;17168;49.164;9.060;2023-12-20T13:25:13;7.50;99.90
30379;DHT22;17168;49.164;9.060;2023-12-20T13:38:25;7.30;99.90
30379;DHT22;17168;49.164;9.060;2023-12-20T13:41:37;7.30;99.90
30379;DHT22;17168;49.164;9.060;2023-12-20T14:11:01;7.00;99.90
30379;DHT22;17168;49.164;9.060;2023-12-20T15:13:05;6.80;99.90
30379;DHT22;17168;49.164;9.060;2023-12-20T15:19:06;6.80;99.90
30379;DHT22;17168;49.164;9.060;2023-12-20T15:21:48;6.80;99.90
30379;DHT22;17168;49.164;9.060;2023-12-20T15:24:22;6.70;99.90
30379;DHT22;17168;49.164;9.060;2023-12-20T15:27:00;6.70;99.90
30379;DHT22;17168;49.164;9.060;2023-12-20T15:29:35;6.70;99.90
30379;DHT22;17168;49.164;9.060;2023-12-20T15:32:07;6.70;99.90
30379;DHT22;17168;49.164;9.060;2023-12-20T15:34:40;6.70;99.90
30379;DHT22;17168;49.164;9.060;2023-12-20T15:37:13;6.60;99.90
30379;DHT22;17168;49.164;9.060;2023-12-20T15:39:46;6.60;99.90
30379;DHT22;17168;49.164;9.060;2023-12-20T15:42:18;6.60;99.90
30379;DHT22;17168;49.164;9.060;2023-12-20T15:44:54;6.60;99.90
30379;DHT22;17168;49.164;9.060;2023-12-20T15:47:26;6.60;99.90
30379;DHT22;17168;49.164;9.060;2023-12-20T15:49:58;6.60;99.90
30379;DHT22;17168;49.164;9.060;2023-12-20T15:52:31;6.60;99.90
30379;DHT22;17168;49.164;9.060;2023-12-20T15:55:04;6.60;99.90
30379;DHT22;17168;49.164;9.060;2023-12-20T15:57:36;6.60;99.90
30379;DHT22;17168;49.164;9.060;2023-12-20T16:00:25;6.60;99.90
30379;DHT22;17168;49.164;9.060;2023-12-20T16:02:58;6.70;99.90
30379;DHT22;17168;49.164;9.060;2023-12-20T16:13:29;6.70;99.90
30379;DHT22;17168;49.164;9.060;2023-12-20T16:16:44;6.70;99.90
30379;DHT22;17168;49.164;9.060;2023-12-20T16:19:20;6.70;99.90
30379;DHT22;17168;49.164;9.060;2023-12-20T16:28:56;6.80;99.90
30379;DHT22;17168;49.164;9.060;2023-12-20T16:31:35;6.80;99.90
30379;DHT22;17168;49.164;9.060;2023-12-20T16:34:13;6.90;99.90
30379;DHT22;17168;49.164;9.060;2023-12-20T16:40:12;6.90;99.90
30379;DHT22;17168;49.164;9.060;2023-12-20T16:49:59;6.90;99.90
30379;DHT22;17168;49.164;9.060;2023-12-20T16:56:08;7.00;99.90
30379;DHT22;17168;49.164;9.060;2023-12-20T16:59:10;7.00;99.90
30379;DHT22;17168;49.164;9.060;2023-12-20T17:01:42;7.00;99.90
30379;DHT22;17168;49.164;9.060;2023-12-20T17:04:17;7.00;99.90
30379;DHT22;17168;49.164;9.060;2023-12-20T17:06:52;7.00;99.90
30379;DHT22;17168;49.164;9.060;2023-12-20T17:09:31;7.00;99.90
30379;DHT22;17168;49.164;9.060;2023-12-20T17:12:24;7.00;99.90
30379;DHT22;17168;49.164;9.060;2023-12-20T17:15:09;7.10;99.90
30379;DHT22;17168;49.164;9.060;2023-12-20T17:18:11;7.10;99.90
30379;DHT22;17168;49.164;9.060;2023-12-20T17:34:29;7.10;99.90
30379;DHT22;17168;49.164;9.060;2023-12-20T17:37:27;7.10;99.90
30379;DHT22;17168;49.164;9.060;2023-12-20T17:40:12;7.10;99.90
30379;DHT22;17168;49.164;9.060;2023-12-20T17:42:47;7.20;99.90
30379;DHT22;17168;49.164;9.060;2023-12-20T17:45:20;7.50;99.90
30379;DHT22;17168;49.164;9.060;2023-12-20T17:47:52;7.90;99.90
30379;DHT22;17168;49.164;9.060;2023-12-20T17:50:25;8.30;99.90
30379;DHT22;17168;49.164;9.060;2023-12-20T17:52:57;8.80;99.90
30379;DHT22;17168;49.164;9.060;2023-12-20T18:01:10;9.80;95.40
30379;DHT22;17168;49.164;9.060;2023-12-20T18:03:51;10.10;93.00
30379;DHT22;17168;49.164;9.060;2023-12-20T18:09:58;10.60;90.10
30379;DHT22;17168;49.164;9.060;2023-12-20T18:12:35;10.70;87.30
30379;DHT22;17168;49.164;9.060;2023-12-20T18:15:12;10.80;85.60
30379;DHT22;17168;49.164;9.060;2023-12-20T18:18:25;10.90;84.30
30379;DHT22;17168;49.164;9.060;2023-12-20T18:20:58;11.00;83.70
30379;DHT22;17168;49.164;9.060;2023-12-20T18:23:44;11.10;83.10
30379;DHT22;17168;49.164;9.060;2023-12-20T18:26:33;11.20;81.40
30379;DHT22;17168;49.164;9.060;2023-12-20T18:29:19;11.20;80.20
30379;DHT22;17168;49.164;9.060;2023-12-20T18:32:01;11.30;80.30
30379;DHT22;17168;49.164;9.060;2023-12-20T18:34:37;11.40;80.00
30379;DHT22;17168;49.164;9.060;2023-12-20T18:37:14;11.40;79.40
30379;DHT22;17168;49.164;9.060;2023-12-20T18:39:50;11.40;78.90
30379;DHT22;17168;49.164;9.060;2023-12-20T18:42:34;11.40;78.10
30379;DHT22;17168;49.164;9.060;2023-12-20T18:45:06;11.40;78.30
30379;DHT22;17168;49.164;9.060;2023-12-20T18:48:03;11.50;78.10
30379;DHT22;17168;49.164;9.060;2023-12-20T18:50:53;11.50;78.30
30379;DHT22;17168;49.164;9.060;2023-12-20T18:53:43;11.50;77.60
30379;DHT22;17168;49.164;9.060;2023-12-20T18:56:27;11.50;77.60
30379;DHT22;17168;49.164;9.060;2023-12-20T18:59:06;11.60;76.90
30379;DHT22;17168;49.164;9.060;2023-12-20T19:01:48;11.60;76.90
30379;DHT22;17168;49.164;9.060;2023-12-20T19:04:34;11.60;76.40
30379;DHT22;17168;49.164;9.060;2023-12-20T19:07:33;11.60;76.70
30379;DHT22;17168;49.164;9.060;2023-12-20T19:10:27;11.60;76.30
30379;DHT22;17168;49.164;9.060;2023-12-20T19:12:59;11.60;76.50
30379;DHT22;17168;49.164;9.060;2023-12-20T19:15:41;11.60;76.10
30379;DHT22;17168;49.164;9.060;2023-12-20T19:21:49;11.60;76.20
30379;DHT22;17168;49.164;9.060;2023-12-20T19:28:31;11.60;76.50
30379;DHT22;17168;49.164;9.060;2023-12-20T19:31:06;11.60;76.50
30379;DHT22;17168;49.164;9.060;2023-12-20T19:33:55;11.60;76.00
30379;DHT22;17168;49.164;9.060;2023-12-20T19:36:36;11.60;76.10
30379;DHT22;17168;49.164;9.060;2023-12-20T19:42:03;11.70;76.50
30379;DHT22;17168;49.164;9.060;2023-12-20T19:44:42;11.70;76.10
30379;DHT22;17168;49.164;9.060;2023-12-20T19:47:27;11.70;76.00
30379;DHT22;17168;49.164;9.060;2023-12-20T19:50:10;11.70;75.70
30379;DHT22;17168;49.164;9.060;2023-12-20T19:56:44;11.70;75.80
30379;DHT22;17168;49.164;9.060;2023-12-20T19:59:28;11.70;75.60
30379;DHT22;17168;49.164;9.060;2023-12-20T20:05:00;11.70;75.70
30379;DHT22;17168;49.164;9.060;2023-12-20T20:07:36;11.70;75.40
30379;DHT22;17168;49.164;9.060;2023-12-20T20:16:41;11.70;75.00
30379;DHT22;17168;49.164;9.060;2023-12-20T20:23:22;11.70;74.80
30379;DHT22;17168;49.164;9.060;2023-12-20T20:26:33;11.70;74.90
30379;DHT22;17168;49.164;9.060;2023-12-20T20:29:15;11.70;74.70
30379;DHT22;17168;49.164;9.060;2023-12-20T20:32:12;11.60;74.50
30379;DHT22;17168;49.164;9.060;2023-12-20T20:35:08;11.60;74.70
30379;DHT22;17168;49.164;9.060;2023-12-20T20:38:02;11.60;74.80
30379;DHT22;17168;49.164;9.060;2023-12-20T20:40:57;11.60;74.90
30379;DHT22;17168;49.164;9.060;2023-12-20T20:43:38;11.50;74.50
30379;DHT22;17168;49.164;9.060;2023-12-20T20:46:29;11.30;74.60
30379;DHT22;17168;49.164;9.060;2023-12-20T20:49:08;10.90;75.40
30379;DHT22;17168;49.164;9.060;2023-12-20T20:52:04;10.50;76.40
30379;DHT22;17168;49.164;9.060;2023-12-20T20:58:20;9.80;78.60
30379;DHT22;17168;49.164;9.060;2023-12-20T21:01:09;9.40;79.90
30379;DHT22;17168;49.164;9.060;2023-12-20T21:09:55;8.80;83.00
30379;DHT22;17168;49.164;9.060;2023-12-20T21:16:52;8.40;85.40
30379;DHT22;17168;49.164;9.060;2023-12-20T21:19:26;8.30;86.60
30379;DHT22;17168;49.164;9.060;2023-12-20T21:22:35;8.10;87.50
30379;DHT22;17168;49.164;9.060;2023-12-20T21:31:31;7.90;90.70
30379;DHT22;17168;49.164;9.060;2023-12-20T21:34:26;7.80;91.40
30379;DHT22;17168;49.164;9.060;2023-12-20T21:37:22;7.80;92.30
30379;DHT22;17168;49.164;9.060;2023-12-20T21:40:02;7.70;92.90
30379;DHT22;17168;49.164;9.060;2023-12-20T21:50:02;7.60;94.90
30379;DHT22;17168;49.164;9.060;2023-12-20T21:52:35;7.60;95.40
30379;DHT22;17168;49.164;9.060;2023-12-20T21:55:16;7.60;95.80
30379;DHT22;17168;49.164;9.060;2023-12-20T21:57:48;7.60;96.30
30379;DHT22;17168;49.164;9.060;2023-12-20T22:00:29;7.50;96.50
30379;DHT22;17168;49.164;9.060;2023-12-20T22:03:08;7.50;96.80
30379;DHT22;17168;49.164;9.060;2023-12-20T22:05:45;7.60;97.20
30379;DHT22;17168;49.164;9.060;2023-12-20T22:08:22;7.60;97.50
30379;DHT22;17168;49.164;9.060;2023-12-20T22:10:58;7.60;97.70
30379;DHT22;17168;49.164;9.060;2023-12-20T22:13:38;7.60;97.90
30379;DHT22;17168;49.164;9.060;2023-12-20T22:16:19;7.60;98.00
30379;DHT22;17168;49.164;9.060;2023-12-20T22:19:18;7.60;98.10
30379;DHT22;17168;49.164;9.060;2023-12-20T22:21:57;7.60;98.20
30379;DHT22;17168;49.164;9.060;2023-12-20T22:24:35;7.60;98.20
30379;DHT22;17168;49.164;9.060;2023-12-20T22:27:07;7.60;98.00
30379;DHT22;17168;49.164;9.060;2023-12-20T22:29:41;7.60;98.00
30379;DHT22;17168;49.164;9.060;2023-12-20T22:32:13;7.60;98.20
30379;DHT22;17168;49.164;9.060;2023-12-20T22:34:45;7.60;98.20
30379;DHT22;17168;49.164;9.060;2023-12-20T22:37:20;7.60;98.00
30379;DHT22;17168;49.164;9.060;2023-12-20T22:39:53;7.60;98.10
30379;DHT22;17168;49.164;9.060;2023-12-20T22:42:25;7.60;98.20
30379;DHT22;17168;49.164;9.060;2023-12-20T22:44:57;7.60;98.30
30379;DHT22;17168;49.164;9.060;2023-12-20T22:47:31;7.60;98.40
30379;DHT22;17168;49.164;9.060;2023-12-20T22:50:05;7.70;98.50
30379;DHT22;17168;49.164;9.060;2023-12-20T22:52:42;7.70;98.60
30379;DHT22;17168;49.164;9.060;2023-12-20T22:55:15;7.70;98.70
30379;DHT22;17168;49.164;9.060;2023-12-20T22:57:47;7.70;98.70
30379;DHT22;17168;49.164;9.060;2023-12-20T23:00:20;7.70;98.90
30379;DHT22;17168;49.164;9.060;2023-12-20T23:02:59;7.70;99.00
30379;DHT22;17168;49.164;9.060;2023-12-20T23:05:31;7.70;98.80
30379;DHT22;17168;49.164;9.060;2023-12-20T23:08:07;7.70;98.80
30379;DHT22;17168;49.164;9.060;2023-12-20T23:10:39;7.70;98.90
30379;DHT22;17168;49.164;9.060;2023-12-20T23:13:14;7.80;98.80
30379;DHT22;17168;49.164;9.060;2023-12-20T23:15:48;7.80;98.90
30379;DHT22;17168;49.164;9.060;2023-12-20T23:18:22;7.80;99.00
30379;DHT22;17168;49.164;9.060;2023-12-20T23:20:55;7.80;99.20
30379;DHT22;17168;49.164;9.060;2023-12-20T23:23:31;7.80;99.40
30379;DHT22;17168;49.164;9.060;2023-12-20T23:26:03;7.80;99.50
30379;DHT22;17168;49.164;9.060;2023-12-20T23:28:36;7.80;99.70
30379;DHT22;17168;49.164;9.060;2023-12-20T23:31:11;7.80;99.70
30379;DHT22;17168;49.164;9.060;2023-12-20T23:33:43;7.90;99.80
30379;DHT22;17168;49.164;9.060;2023-12-20T23:36:17;7.90;99.60
30379;DHT22;17168;49.164;9.060;2023-12-20T23:38:55;7.90;99.70
30379;DHT22;17168;49.164;9.060;2023-12-20T23:41:30;7.90;99.70
30379;DHT22;17168;49.164;9.060;2023-12-20T23:44:05;7.90;99.60
30379;DHT22;17168;49.164;9.060;2023-12-20T23:46:51;7.90;99.80
30379;DHT22;17168;49.164;9.060;2023-12-20T23:49:24;8.00;99.90
30379;DHT22;17168;49.164;9.060;2023-12-20T23:52:01;7.90;99.90
30379;DHT22;17168;49.164;9.060;2023-12-20T23:55:03;8.00;99.90
30379;DHT22;17168;49.164;9.060;2023-12-20T23:57:42;7.90;99.90
